createdAt,value
2023-03-10T00:00:12.786Z,98561.38
2023-03-10T00:02:45.053Z,98552.72
2023-03-10T00:05:11.527Z,98553.09
2023-03-10T00:07:38.128Z,98558.22
2023-03-10T00:10:04.945Z,98553.88
2023-03-10T00:12:31.491Z,98559.88
2023-03-10T00:14:57.987Z,98559.72
2023-03-10T00:17:24.650Z,98553.22
2023-03-10T00:19:51.196Z,98549.22
2023-03-10T00:22:17.782Z,98554.41
2023-03-10T00:24:44.203Z,98550.56
2023-03-10T00:27:10.640Z,98557.91
2023-03-10T00:29:37.146Z,98571.06
2023-03-10T00:32:03.962Z,98545.91
2023-03-10T00:34:30.623Z,98547.41
2023-03-10T00:36:57.099Z,98567.44
2023-03-10T00:39:23.645Z,98555.75
2023-03-10T00:41:50.111Z,98545.09
2023-03-10T00:44:16.663Z,98546.22
2023-03-10T00:46:43.248Z,98552.72
2023-03-10T00:49:15.360Z,98546.91
2023-03-10T00:51:41.854Z,98548.03
2023-03-10T00:54:09.859Z,98552.06
2023-03-10T00:56:36.384Z,98556.19
2023-03-10T00:59:02.868Z,98545.53
2023-03-10T01:01:39.487Z,98551.38
2023-03-10T01:04:18.822Z,98553.72
2023-03-10T01:06:47.552Z,98550.03
2023-03-10T01:09:14.890Z,98548.19
2023-03-10T01:11:41.382Z,98559.38
2023-03-10T01:14:09.223Z,98551.19
2023-03-10T01:16:35.821Z,98554.66
2023-03-10T01:19:02.290Z,98560.50
2023-03-10T01:21:31.763Z,98559.34
2023-03-10T01:23:59.225Z,98555.53
2023-03-10T01:26:26.070Z,98555.03
2023-03-10T01:28:52.577Z,98548.00
2023-03-10T01:31:20.170Z,98541.00
2023-03-10T01:33:46.841Z,98543.38
2023-03-10T01:36:16.883Z,98536.84
2023-03-10T01:38:44.700Z,98529.81
2023-03-10T01:41:12.180Z,98527.34
2023-03-10T01:43:41.384Z,98523.31
2023-03-10T01:46:38.640Z,98522.00
2023-03-10T01:49:33.574Z,98526.50
2023-03-10T01:52:14.713Z,98523.31
2023-03-10T01:54:46.789Z,98529.31
2023-03-10T01:57:16.793Z,98525.47
2023-03-10T01:59:43.715Z,98518.84
2023-03-10T02:02:11.149Z,98519.34
2023-03-10T02:04:43.817Z,98512.84
2023-03-10T02:07:13.107Z,98512.84
2023-03-10T02:09:44.352Z,98515.09
2023-03-10T02:12:12.242Z,98513.81
2023-03-10T02:14:39.532Z,98508.47
2023-03-10T02:17:08.897Z,98508.66
2023-03-10T02:19:39.335Z,98509.34
2023-03-10T02:22:11.698Z,98505.81
2023-03-10T02:24:53.118Z,98504.47
2023-03-10T02:27:35.443Z,98496.84
2023-03-10T02:30:23.874Z,98500.81
2023-03-10T02:32:56.061Z,98495.34
2023-03-10T02:35:22.565Z,98497.16
2023-03-10T02:37:50.961Z,98493.66
2023-03-10T02:40:36.761Z,98493.97
2023-03-10T02:43:16.636Z,98489.13
2023-03-10T02:45:45.940Z,98493.16
2023-03-10T02:48:18.791Z,98484.66
2023-03-10T02:50:47.359Z,98485.63
2023-03-10T02:53:17.802Z,98481.28
2023-03-10T02:55:44.457Z,98481.78
2023-03-10T02:58:11.722Z,98480.34
2023-03-10T03:00:40.985Z,98479.66
2023-03-10T03:03:08.668Z,98480.31
2023-03-10T03:05:35.563Z,98468.47
2023-03-10T03:08:02.433Z,98476.66
2023-03-10T03:10:28.984Z,98467.88
2023-03-10T03:12:56.648Z,98470.19
2023-03-10T03:15:24.117Z,98461.13
2023-03-10T03:17:51.098Z,98460.13
2023-03-10T03:20:18.046Z,98463.69
2023-03-10T03:22:45.583Z,98464.97
2023-03-10T03:25:14.680Z,98464.81
2023-03-10T03:27:42.186Z,98457.16
2023-03-10T03:30:13.091Z,98459.19
2023-03-10T03:32:39.743Z,98462.84
2023-03-10T03:35:14.529Z,98445.00
2023-03-10T03:37:41.015Z,98444.28
2023-03-10T03:40:12.917Z,98445.00
2023-03-10T03:42:43.694Z,98448.63
2023-03-10T03:45:11.517Z,98449.63
2023-03-10T03:47:37.928Z,98446.94
2023-03-10T03:50:05.173Z,98442.34
2023-03-10T03:52:32.532Z,98438.31
2023-03-10T03:54:58.997Z,98448.59
2023-03-10T03:57:25.479Z,98446.41
2023-03-10T03:59:52.011Z,98451.63
2023-03-10T04:02:19.128Z,98449.88
2023-03-10T04:04:45.881Z,98452.41
2023-03-10T04:07:12.510Z,98454.22
2023-03-10T04:09:40.442Z,98448.41
2023-03-10T04:12:08.757Z,98439.91
2023-03-10T04:14:36.377Z,98444.41
2023-03-10T04:17:03.869Z,98443.38
2023-03-10T04:19:30.603Z,98429.56
2023-03-10T04:21:57.106Z,98435.38
2023-03-10T04:24:24.044Z,98436.38
2023-03-10T04:26:50.755Z,98442.56
2023-03-10T04:29:17.333Z,98440.41
2023-03-10T04:31:48.295Z,98440.41
2023-03-10T04:34:17.782Z,98439.91
2023-03-10T04:36:44.383Z,98441.53
2023-03-10T04:39:10.846Z,98446.72
2023-03-10T04:41:37.383Z,98441.72
2023-03-10T04:44:04.184Z,98438.56
2023-03-10T04:46:33.896Z,98438.00
2023-03-10T04:49:00.474Z,98442.41
2023-03-10T04:51:26.870Z,98438.22
2023-03-10T04:53:53.285Z,98435.91
2023-03-10T04:56:20.272Z,98433.06
2023-03-10T04:58:46.730Z,98427.59
2023-03-10T05:01:15.376Z,98433.38
2023-03-10T05:03:41.951Z,98434.25
2023-03-10T05:06:13.457Z,98429.69
2023-03-10T05:08:40.017Z,98432.88
2023-03-10T05:11:07.311Z,98434.44
2023-03-10T05:13:33.873Z,98434.06
2023-03-10T05:16:00.383Z,98428.38
2023-03-10T05:18:26.991Z,98430.25
2023-03-10T05:20:55.464Z,98431.41
2023-03-10T05:23:22.426Z,98437.03
2023-03-10T05:25:49.516Z,98432.31
2023-03-10T05:28:16.018Z,98438.44
2023-03-10T05:30:42.794Z,98431.44
2023-03-10T05:33:09.298Z,98424.09
2023-03-10T05:35:38.137Z,98437.09
2023-03-10T05:38:04.754Z,98442.25
2023-03-10T05:40:31.470Z,98435.09
2023-03-10T05:42:57.959Z,98438.94
2023-03-10T05:45:24.412Z,98440.63
2023-03-10T05:47:50.864Z,98452.94
2023-03-10T05:50:17.953Z,98448.78
2023-03-10T05:52:44.790Z,98442.59
2023-03-10T05:55:14.791Z,98447.44
2023-03-10T05:57:41.838Z,98443.78
2023-03-10T06:00:10.568Z,98450.91
2023-03-10T06:02:41.360Z,98442.72
2023-03-10T06:05:11.449Z,98455.41
2023-03-10T06:07:38.375Z,98450.38
2023-03-10T06:10:05.711Z,98444.63
2023-03-10T06:12:33.453Z,98448.41
2023-03-10T06:15:00.001Z,98447.59
2023-03-10T06:17:26.462Z,98444.06
2023-03-10T06:19:52.996Z,98448.56
2023-03-10T06:22:19.520Z,98445.88
2023-03-10T06:24:46.075Z,98458.09
2023-03-10T06:27:12.548Z,98452.25
2023-03-10T06:29:39.046Z,98446.28
2023-03-10T06:32:05.890Z,98443.75
2023-03-10T06:34:32.510Z,98442.38
2023-03-10T06:36:59.000Z,98450.25
2023-03-10T06:39:28.861Z,98443.38
2023-03-10T06:41:55.343Z,98446.88
2023-03-10T06:44:21.880Z,98443.44
2023-03-10T06:46:48.451Z,98442.13
2023-03-10T06:49:15.046Z,98447.47
2023-03-10T06:51:41.623Z,98450.00
2023-03-10T06:54:08.136Z,98456.28
2023-03-10T06:56:34.571Z,98452.63
2023-03-10T06:59:01.159Z,98452.56
2023-03-10T07:01:33.129Z,98455.94
2023-03-10T07:04:01.307Z,98451.94
2023-03-10T07:06:28.164Z,98447.75
2023-03-10T07:08:54.953Z,98445.59
2023-03-10T07:11:22.838Z,98455.75
2023-03-10T07:13:49.692Z,98453.06
2023-03-10T07:16:16.547Z,98457.97
2023-03-10T07:18:43.561Z,98457.47
2023-03-10T07:21:11.639Z,98451.91
2023-03-10T07:23:38.368Z,98455.41
2023-03-10T07:26:07.980Z,98454.22
2023-03-10T07:28:38.047Z,98460.72
2023-03-10T07:31:06.669Z,98457.41
2023-03-10T07:33:33.613Z,98458.44
2023-03-10T07:36:05.065Z,98448.56
2023-03-10T07:38:31.595Z,98460.03
2023-03-10T07:40:59.100Z,98465.56
2023-03-10T07:43:26.561Z,98466.75
2023-03-10T07:45:53.498Z,98467.22
2023-03-10T07:48:19.992Z,98471.72
2023-03-10T07:50:55.438Z,98472.06
2023-03-10T07:53:21.869Z,98473.25
2023-03-10T07:55:48.320Z,98475.25
2023-03-10T07:58:14.988Z,98473.56
2023-03-10T08:00:41.616Z,98468.06
2023-03-10T08:03:08.257Z,98468.88
2023-03-10T08:05:40.147Z,98472.84
2023-03-10T08:08:06.999Z,98481.72
2023-03-10T08:10:33.631Z,98482.03
2023-03-10T08:13:00.771Z,98487.47
2023-03-10T08:15:27.444Z,98478.44
2023-03-10T08:17:54.107Z,98478.72
2023-03-10T08:20:20.696Z,98478.84
2023-03-10T08:22:47.199Z,98477.78
2023-03-10T08:25:13.664Z,98485.16
2023-03-10T08:27:41.546Z,98489.78
2023-03-10T08:30:08.720Z,98490.94
2023-03-10T08:32:35.175Z,98489.72
2023-03-10T08:35:01.805Z,98492.78
2023-03-10T08:37:28.456Z,98486.91
2023-03-10T08:39:56.605Z,98494.88
2023-03-10T08:42:23.201Z,98495.59
2023-03-10T08:44:49.764Z,98499.16
2023-03-10T08:47:16.590Z,98499.63
2023-03-10T08:49:45.741Z,98506.03
2023-03-10T08:52:13.570Z,98495.09
2023-03-10T08:54:40.065Z,98501.69
2023-03-10T08:57:06.619Z,98494.13
2023-03-10T08:59:33.136Z,98509.00
2023-03-10T09:01:59.757Z,98512.50
2023-03-10T09:04:26.261Z,98500.34
2023-03-10T09:06:52.848Z,98505.09
2023-03-10T09:09:19.756Z,98508.09
2023-03-10T09:11:46.580Z,98502.22
2023-03-10T09:14:16.955Z,98494.22
2023-03-10T09:16:43.955Z,98500.38
2023-03-10T09:19:10.914Z,98499.16
2023-03-10T09:21:38.087Z,98503.50
2023-03-10T09:24:04.912Z,98503.25
2023-03-10T09:26:31.548Z,98499.81
2023-03-10T09:28:58.091Z,98501.47
2023-03-10T09:31:29.563Z,98502.06
2023-03-10T09:33:56.056Z,98499.28
2023-03-10T09:36:22.871Z,98497.75
2023-03-10T09:38:49.442Z,98505.56
2023-03-10T09:41:28.823Z,98504.97
2023-03-10T09:44:30.789Z,98500.81
2023-03-10T09:47:07.375Z,98495.59
2023-03-10T09:49:46.103Z,98499.28
2023-03-10T09:52:36.331Z,98505.38
2023-03-10T09:55:18.174Z,98505.28
2023-03-10T09:57:47.612Z,98509.25
2023-03-10T10:00:22.101Z,98512.22
2023-03-10T10:02:51.331Z,98510.66
2023-03-10T10:05:25.315Z,98517.78
2023-03-10T10:08:00.808Z,98517.34
2023-03-10T10:10:31.236Z,98525.63
2023-03-10T10:13:11.452Z,98525.50
2023-03-10T10:15:41.369Z,98522.53
2023-03-10T10:18:23.277Z,98529.50
2023-03-10T10:20:59.173Z,98531.97
2023-03-10T10:23:28.606Z,98530.09
2023-03-10T10:25:55.156Z,98537.63
2023-03-10T10:28:33.000Z,98538.41
2023-03-10T10:31:18.603Z,98536.88
2023-03-10T10:34:21.801Z,98538.53
2023-03-10T10:36:57.863Z,98543.31
2023-03-10T10:39:27.973Z,98542.81
2023-03-10T10:41:54.797Z,98540.78
2023-03-10T10:44:21.546Z,98531.16
2023-03-10T10:46:56.830Z,98539.34
2023-03-10T10:49:27.237Z,98539.22
2023-03-10T10:52:06.051Z,98541.44
2023-03-10T10:54:38.056Z,98537.00
2023-03-10T10:57:17.378Z,98536.75
2023-03-10T10:59:44.100Z,98527.81
2023-03-10T11:02:32.475Z,98521.22
2023-03-10T11:05:24.464Z,98530.56
2023-03-10T11:07:52.188Z,98531.22
2023-03-10T11:10:23.310Z,98541.59
2023-03-10T11:12:59.296Z,98528.69
2023-03-10T11:15:43.969Z,98533.13
2023-03-10T11:18:22.699Z,98541.50
2023-03-10T11:21:12.190Z,98545.22
2023-03-10T11:24:14.020Z,98543.09
2023-03-10T11:27:19.806Z,98541.31
2023-03-10T11:30:02.932Z,98545.22
2023-03-10T11:32:41.502Z,98565.91
2023-03-10T11:35:24.338Z,98551.50
2023-03-10T11:38:00.500Z,98544.66
2023-03-10T11:40:29.638Z,98546.78
2023-03-10T11:43:34.077Z,98542.94
2023-03-10T11:46:05.174Z,98537.47
2023-03-10T11:48:49.917Z,98524.94
2023-03-10T11:51:25.383Z,98527.78
2023-03-10T11:53:56.662Z,98514.00
2023-03-10T11:56:25.037Z,98509.13
2023-03-10T11:59:14.005Z,98507.72
2023-03-10T12:01:46.066Z,98515.31
2023-03-10T12:04:21.742Z,98522.66
2023-03-10T12:07:07.888Z,98516.94
2023-03-10T12:09:37.338Z,98509.75
2023-03-10T12:12:06.505Z,98506.16
2023-03-10T12:14:35.356Z,98501.38
2023-03-10T12:17:04.832Z,98510.69
2023-03-10T12:19:31.390Z,98510.47
2023-03-10T12:22:37.840Z,98503.63
2023-03-10T12:25:04.960Z,98510.44
2023-03-10T12:28:09.834Z,98513.13
2023-03-10T12:30:56.676Z,98501.97
2023-03-10T12:33:38.627Z,98508.13
2023-03-10T12:36:31.926Z,98504.06
2023-03-10T12:39:27.660Z,98503.78
2023-03-10T12:41:59.626Z,98495.13
2023-03-10T12:44:32.183Z,98500.69
2023-03-10T12:47:07.820Z,98496.34
2023-03-10T12:49:46.241Z,98490.34
2023-03-10T12:52:24.607Z,98479.94
2023-03-10T12:55:24.495Z,98479.06
2023-03-10T12:57:58.268Z,98468.78
2023-03-10T13:00:42.716Z,98470.22
2023-03-10T13:03:19.841Z,98462.03
2023-03-10T13:06:03.537Z,98466.41
2023-03-10T13:08:39.286Z,98474.72
2023-03-10T13:11:16.176Z,98487.81
2023-03-10T13:13:43.244Z,98478.88
2023-03-10T13:16:20.712Z,98484.78
2023-03-10T13:18:54.400Z,98483.94
2023-03-10T13:21:26.852Z,98494.47
2023-03-10T13:23:53.533Z,98487.09
2023-03-10T13:26:19.979Z,98490.59
2023-03-10T13:28:58.088Z,98493.16
2023-03-10T13:31:30.565Z,98503.38
2023-03-10T13:33:58.086Z,98508.44
2023-03-10T13:36:36.519Z,98524.03
2023-03-10T13:39:15.790Z,98517.66
2023-03-10T13:41:51.019Z,98530.16
2023-03-10T13:44:18.583Z,98544.22
2023-03-10T13:46:54.020Z,98546.78
2023-03-10T13:49:25.461Z,98557.38
2023-03-10T13:51:54.604Z,98566.09
2023-03-10T13:54:31.880Z,98584.22
2023-03-10T13:57:33.596Z,98594.63
2023-03-10T14:00:00.867Z,98607.84
2023-03-10T14:02:33.365Z,98614.56
2023-03-10T14:05:00.996Z,98627.75
2023-03-10T14:07:30.608Z,98642.78
2023-03-10T14:10:06.546Z,98636.59
2023-03-10T14:12:42.120Z,98655.81
2023-03-10T14:15:22.926Z,98669.53
2023-03-10T14:18:06.240Z,98696.56
2023-03-10T14:20:34.250Z,98698.25
2023-03-10T14:23:23.520Z,98696.06
2023-03-10T14:25:56.179Z,98709.56
2023-03-10T14:28:27.432Z,98729.28
2023-03-10T14:30:54.354Z,98744.25
2023-03-10T14:33:20.967Z,98763.41
2023-03-10T14:35:47.754Z,98776.06
2023-03-10T14:38:14.192Z,98797.59
2023-03-10T14:40:43.393Z,98815.16
2023-03-10T14:43:16.482Z,98839.66
2023-03-10T14:45:45.359Z,98857.84
2023-03-10T14:48:35.305Z,98866.28
2023-03-10T14:51:02.266Z,98868.09
2023-03-10T14:53:30.914Z,98878.84
2023-03-10T14:56:00.461Z,98893.53
2023-03-10T14:58:48.468Z,98900.72
2023-03-10T15:01:17.662Z,98912.72
2023-03-10T15:03:44.651Z,98915.41
2023-03-10T15:06:14.665Z,98926.81
2023-03-10T15:08:41.473Z,98931.22
2023-03-10T15:11:08.800Z,98956.09
2023-03-10T15:13:37.779Z,98946.75
2023-03-10T15:16:05.963Z,98933.16
2023-03-10T15:18:32.743Z,98968.03
2023-03-10T15:21:00.399Z,98991.25
2023-03-10T15:23:28.059Z,99002.28
2023-03-10T15:25:58.458Z,99006.13
2023-03-10T15:28:25.248Z,99004.78
2023-03-10T15:30:51.704Z,99023.69
2023-03-10T15:33:18.166Z,99029.59
2023-03-10T15:35:44.821Z,99046.97
2023-03-10T15:38:13.983Z,99058.16
2023-03-10T15:40:41.312Z,99089.56
2023-03-10T15:43:08.772Z,99077.38
2023-03-10T15:45:40.881Z,99092.47
2023-03-10T15:48:07.607Z,99123.78
2023-03-10T15:50:34.735Z,99140.75
2023-03-10T15:53:01.323Z,99172.56
2023-03-10T15:55:28.721Z,99163.38
2023-03-10T15:57:56.141Z,99193.97
2023-03-10T16:00:24.478Z,99216.38
2023-03-10T16:02:51.032Z,99219.16
2023-03-10T16:05:18.674Z,99249.00
2023-03-10T16:07:45.976Z,99270.44
2023-03-10T16:10:14.541Z,99283.59
2023-03-10T16:12:41.040Z,99329.53
2023-03-10T16:15:08.359Z,99319.72
2023-03-10T16:17:34.814Z,99333.84
2023-03-10T16:20:06.538Z,99359.59
2023-03-10T16:22:33.120Z,99383.13
2023-03-10T16:24:59.624Z,99403.72
2023-03-10T16:27:26.074Z,99397.56
2023-03-10T16:29:52.524Z,99412.53
2023-03-10T16:32:20.715Z,99436.47
2023-03-10T16:34:47.968Z,99436.03
2023-03-10T16:37:14.550Z,99421.63
2023-03-10T16:39:40.949Z,99423.59
2023-03-10T16:42:07.581Z,99455.81
2023-03-10T16:44:34.125Z,99478.66
2023-03-10T16:47:00.598Z,99473.72
2023-03-10T16:49:27.164Z,99496.00
2023-03-10T16:51:53.608Z,99504.84
2023-03-10T16:54:22.006Z,99508.91
2023-03-10T16:56:50.730Z,99520.81
2023-03-10T16:59:20.531Z,99525.44
2023-03-10T17:01:48.126Z,99534.97
2023-03-10T17:04:15.012Z,99533.16
2023-03-10T17:06:41.640Z,99534.97
2023-03-10T17:09:09.914Z,99540.59
2023-03-10T17:11:39.664Z,99555.41
2023-03-10T17:14:10.163Z,99558.50
2023-03-10T17:16:38.071Z,99566.72
2023-03-10T17:19:07.775Z,99571.50
2023-03-10T17:21:38.333Z,99584.94
2023-03-10T17:24:07.185Z,99589.81
2023-03-10T17:26:34.910Z,99615.50
2023-03-10T17:29:01.566Z,99629.72
2023-03-10T17:31:29.209Z,99639.78
2023-03-10T17:33:58.670Z,99647.94
2023-03-10T17:36:25.473Z,99661.25
2023-03-10T17:38:53.691Z,99673.00
2023-03-10T17:41:21.368Z,99689.31
2023-03-10T17:43:47.803Z,99697.09
2023-03-10T17:46:17.043Z,99700.72
2023-03-10T17:48:44.319Z,99705.59
2023-03-10T17:51:16.051Z,99701.00
2023-03-10T17:53:43.657Z,99723.47
2023-03-10T17:56:10.203Z,99736.69
2023-03-10T17:58:36.768Z,99750.84
2023-03-10T18:01:10.247Z,99759.78
2023-03-10T18:03:37.202Z,99767.41
2023-03-10T18:06:04.740Z,99769.34
2023-03-10T18:08:31.289Z,99785.97
2023-03-10T18:11:05.713Z,99800.63
2023-03-10T18:13:32.843Z,99807.75
2023-03-10T18:15:59.479Z,99811.78
2023-03-10T18:18:25.991Z,99827.03
2023-03-10T18:20:52.756Z,99841.56
2023-03-10T18:23:22.016Z,99840.53
2023-03-10T18:25:49.059Z,99843.00
2023-03-10T18:28:18.845Z,99843.84
2023-03-10T18:30:47.556Z,99840.75
2023-03-10T18:33:15.184Z,99852.59
2023-03-10T18:35:44.441Z,99873.13
2023-03-10T18:38:15.815Z,99870.97
2023-03-10T18:40:42.697Z,99880.38
2023-03-10T18:43:10.049Z,99875.53
2023-03-10T18:45:39.375Z,99875.53
2023-03-10T18:48:07.211Z,99877.41
2023-03-10T18:50:33.813Z,99876.34
2023-03-10T18:53:00.306Z,99880.47
2023-03-10T18:55:27.001Z,99894.94
2023-03-10T18:57:53.467Z,99898.69
2023-03-10T19:00:21.391Z,99909.59
2023-03-10T19:02:47.820Z,99913.50
2023-03-10T19:05:15.618Z,99917.19
2023-03-10T19:07:42.117Z,99924.25
2023-03-10T19:10:11.905Z,99930.81
2023-03-10T19:12:38.426Z,99935.44
2023-03-10T19:15:08.876Z,99930.03
2023-03-10T19:17:37.496Z,99940.91
2023-03-10T19:20:07.416Z,99949.91
2023-03-10T19:22:34.971Z,99937.56
2023-03-10T19:25:03.513Z,99957.50
2023-03-10T19:27:30.986Z,99969.72
2023-03-10T19:29:58.427Z,99973.38
2023-03-10T19:32:26.044Z,99985.59
2023-03-10T19:34:52.643Z,99994.88
2023-03-10T19:37:19.455Z,99994.53
2023-03-10T19:39:45.904Z,100007.84
2023-03-10T19:42:12.347Z,100012.81
2023-03-10T19:44:39.508Z,100011.94
2023-03-10T19:47:06.102Z,100028.28
2023-03-10T19:49:36.009Z,100036.63
2023-03-10T19:52:02.708Z,100044.94
2023-03-10T19:54:29.135Z,100038.97
2023-03-10T19:56:55.627Z,100046.53
2023-03-10T19:59:22.204Z,100050.78
2023-03-10T20:01:49.369Z,100068.56
2023-03-10T20:04:15.943Z,100070.75
2023-03-10T20:06:42.532Z,100062.63
2023-03-10T20:09:10.624Z,100073.97
2023-03-10T20:11:41.149Z,100075.44
2023-03-10T20:14:08.259Z,100086.81
2023-03-10T20:16:35.345Z,100091.03
2023-03-10T20:19:01.881Z,100082.81
2023-03-10T20:21:28.377Z,100088.75
2023-03-10T20:23:56.121Z,100086.94
2023-03-10T20:26:23.296Z,100092.50
2023-03-10T20:28:50.471Z,100095.78
2023-03-10T20:31:20.003Z,100110.41
2023-03-10T20:33:46.629Z,100119.72
2023-03-10T20:36:16.182Z,100114.50
2023-03-10T20:38:46.280Z,100130.94
2023-03-10T20:41:13.990Z,100121.16
2023-03-10T20:43:41.790Z,100133.28
2023-03-10T20:46:08.851Z,100133.88
2023-03-10T20:48:35.633Z,100138.47
2023-03-10T20:51:03.445Z,100145.97
2023-03-10T20:53:37.177Z,100153.09
2023-03-10T20:56:08.874Z,100147.28
2023-03-10T20:58:35.389Z,100158.91
2023-03-10T21:01:02.080Z,100171.84
2023-03-10T21:03:28.543Z,100170.03
2023-03-10T21:05:55.064Z,100176.78
2023-03-10T21:08:21.553Z,100190.34
2023-03-10T21:10:49.449Z,100184.69
2023-03-10T21:13:16.058Z,100183.47
2023-03-10T21:15:42.598Z,100188.41
2023-03-10T21:18:09.168Z,100198.00
2023-03-10T21:20:35.772Z,100200.41
2023-03-10T21:23:02.316Z,100201.72
2023-03-10T21:25:28.947Z,100212.97
2023-03-10T21:27:58.951Z,100214.66
2023-03-10T21:30:31.873Z,100222.78
2023-03-10T21:32:58.918Z,100230.75
2023-03-10T21:35:28.188Z,100235.94
2023-03-10T21:37:55.585Z,100241.38
2023-03-10T21:40:24.302Z,100239.84
2023-03-10T21:42:51.145Z,100250.22
2023-03-10T21:45:21.425Z,100256.53
2023-03-10T21:47:47.923Z,100257.72
2023-03-10T21:50:15.518Z,100256.38
2023-03-10T21:52:43.250Z,100277.19
2023-03-10T21:55:21.877Z,100280.31
2023-03-10T21:57:48.838Z,100290.72
2023-03-10T22:00:17.143Z,100300.03
2023-03-10T22:02:43.593Z,100303.75
2023-03-10T22:05:13.590Z,100302.56
2023-03-10T22:07:40.615Z,100309.59
2023-03-10T22:10:08.693Z,100313.06
2023-03-10T22:12:35.271Z,100325.22
2023-03-10T22:15:01.778Z,100326.44
2023-03-10T22:17:28.290Z,100329.72
2023-03-10T22:19:54.886Z,100331.47
2023-03-10T22:22:22.711Z,100333.19
2023-03-10T22:24:49.720Z,100335.22
2023-03-10T22:27:17.009Z,100336.84
2023-03-10T22:29:43.577Z,100336.22
2023-03-10T22:32:10.016Z,100343.44
2023-03-10T22:34:36.492Z,100339.97
2023-03-10T22:37:02.981Z,100347.81
2023-03-10T22:39:29.445Z,100353.13
2023-03-10T22:41:55.971Z,100344.56
2023-03-10T22:44:22.959Z,100351.41
2023-03-10T22:46:49.921Z,100346.44
2023-03-10T22:49:16.422Z,100352.63
2023-03-10T22:51:42.889Z,100362.69
2023-03-10T22:54:09.291Z,100354.94
2023-03-10T22:56:36.166Z,100360.47
2023-03-10T22:59:04.392Z,100362.47
2023-03-10T23:01:30.967Z,100374.06
2023-03-10T23:03:57.583Z,100369.94
2023-03-10T23:06:26.214Z,100370.81
2023-03-10T23:08:52.817Z,100378.78
2023-03-10T23:11:19.445Z,100381.63
2023-03-10T23:13:45.942Z,100382.13
2023-03-10T23:16:12.513Z,100387.19
2023-03-10T23:18:39.161Z,100385.13
2023-03-10T23:21:06.460Z,100387.78
2023-03-10T23:23:33.083Z,100382.94
2023-03-10T23:25:59.576Z,100394.09
2023-03-10T23:28:26.133Z,100396.88
2023-03-10T23:30:54.205Z,100406.34
2023-03-10T23:33:23.537Z,100405.63
2023-03-10T23:35:53.789Z,100416.06
2023-03-10T23:38:22.763Z,100422.66
2023-03-10T23:40:50.868Z,100422.34
2023-03-10T23:43:18.196Z,100432.22
2023-03-10T23:45:44.757Z,100429.84
2023-03-10T23:48:18.092Z,100428.13
2023-03-10T23:50:46.398Z,100437.63
2023-03-10T23:53:14.515Z,100438.41
2023-03-10T23:55:44.127Z,100439.84
2023-03-10T23:58:11.076Z,100433.53
